createdAt,value
2022-10-23T00:01:46.208Z,11.57
2022-10-23T00:04:16.431Z,11.57
2022-10-23T00:06:44.970Z,11.58
2022-10-23T00:09:15.976Z,11.59
2022-10-23T00:11:44.584Z,11.58
2022-10-23T00:14:13.494Z,11.56
2022-10-23T00:16:41.185Z,11.56
2022-10-23T00:19:08.887Z,11.56
2022-10-23T00:21:36.695Z,11.55
2022-10-23T00:24:04.684Z,11.54
2022-10-23T00:26:32.463Z,11.55
2022-10-23T00:28:59.991Z,11.52
2022-10-23T00:31:28.879Z,11.53
2022-10-23T00:33:56.404Z,11.52
2022-10-23T00:36:23.982Z,11.50
2022-10-23T00:38:52.026Z,11.47
2022-10-23T00:41:21.588Z,11.46
2022-10-23T00:44:01.874Z,11.48
2022-10-23T00:46:31.578Z,11.46
2022-10-23T00:48:59.937Z,11.45
2022-10-23T00:51:30.599Z,11.46
2022-10-23T00:54:22.780Z,11.48
2022-10-23T00:56:48.815Z,11.48
2022-10-23T00:59:16.622Z,11.48
2022-10-23T01:01:45.636Z,11.48
2022-10-23T01:04:13.282Z,11.48
2022-10-23T01:06:46.245Z,11.47
2022-10-23T01:09:19.506Z,11.46
2022-10-23T01:11:51.062Z,11.44
2022-10-23T01:14:26.538Z,11.43
2022-10-23T01:17:04.208Z,11.41
2022-10-23T01:19:44.627Z,11.38
2022-10-23T01:22:29.033Z,11.35
2022-10-23T01:25:00.410Z,11.33
2022-10-23T01:27:34.367Z,11.31
2022-10-23T01:30:07.182Z,11.30
2022-10-23T01:32:44.037Z,11.28
2022-10-23T01:35:14.992Z,11.27
2022-10-23T01:37:45.011Z,11.26
2022-10-23T01:40:21.206Z,11.24
2022-10-23T01:42:54.781Z,11.23
2022-10-23T01:45:28.254Z,11.21
2022-10-23T01:47:57.548Z,11.19
2022-10-23T01:50:27.649Z,11.16
2022-10-23T01:52:55.577Z,11.15
2022-10-23T01:55:24.738Z,11.13
2022-10-23T01:57:55.594Z,11.10
2022-10-23T02:00:23.686Z,11.07
2022-10-23T02:02:52.898Z,11.04
2022-10-23T02:05:25.021Z,10.99
2022-10-23T02:07:53.864Z,10.95
2022-10-23T02:10:22.410Z,10.91
2022-10-23T02:12:58.864Z,10.86
2022-10-23T02:15:31.845Z,10.81
2022-10-23T02:18:07.332Z,10.76
2022-10-23T02:20:40.579Z,10.69
2022-10-23T02:23:17.757Z,10.63
2022-10-23T02:25:51.478Z,10.57
2022-10-23T02:28:27.499Z,10.52
2022-10-23T02:30:58.963Z,10.47
2022-10-23T02:33:28.346Z,10.43
2022-10-23T02:35:55.951Z,10.38
2022-10-23T02:38:35.474Z,10.31
2022-10-23T02:41:18.189Z,10.24
2022-10-23T02:43:55.729Z,10.17
2022-10-23T02:46:29.959Z,10.11
2022-10-23T02:49:08.631Z,10.06
2022-10-23T02:51:48.448Z,10.00
2022-10-23T02:54:24.594Z,9.96
2022-10-23T02:56:58.586Z,9.94
2022-10-23T02:59:35.658Z,9.93
2022-10-23T03:02:07.724Z,9.91
2022-10-23T03:04:38.812Z,9.90
2022-10-23T03:07:06.421Z,9.90
2022-10-23T03:09:33.967Z,9.88
2022-10-23T03:12:01.571Z,9.86
2022-10-23T03:14:30.459Z,9.85
2022-10-23T03:16:58.009Z,9.83
2022-10-23T03:19:25.549Z,9.84
2022-10-23T03:21:53.074Z,9.84
2022-10-23T03:24:20.621Z,9.85
2022-10-23T03:26:48.269Z,9.86
2022-10-23T03:29:15.821Z,9.88
2022-10-23T03:31:44.746Z,9.91
2022-10-23T03:34:13.640Z,9.91
2022-10-23T03:36:41.601Z,9.91
2022-10-23T03:39:09.520Z,9.88
2022-10-23T03:41:37.093Z,9.85
2022-10-23T03:46:37.643Z,9.78
2022-10-23T03:49:06.534Z,9.72
2022-10-23T03:51:34.498Z,9.66
2022-10-23T03:54:02.051Z,9.60
2022-10-23T03:56:29.650Z,9.55
2022-10-23T03:58:57.186Z,9.50
2022-10-23T04:01:25.165Z,9.44
2022-10-23T04:03:53.095Z,9.39
2022-10-23T04:06:22.006Z,9.37
2022-10-23T04:08:49.638Z,9.34
2022-10-23T04:11:17.251Z,9.32
2022-10-23T04:13:44.809Z,9.30
2022-10-23T04:16:12.374Z,9.27
2022-10-23T04:18:41.450Z,9.26
2022-10-23T04:21:09.166Z,9.23
2022-10-23T04:23:38.146Z,9.20
2022-10-23T04:26:05.843Z,9.17
2022-10-23T04:28:33.437Z,9.13
2022-10-23T04:31:01.031Z,9.09
2022-10-23T04:33:28.894Z,9.08
2022-10-23T04:35:56.522Z,9.05
2022-10-23T04:38:24.062Z,9.04
2022-10-23T04:40:53.087Z,9.03
2022-10-23T04:43:20.659Z,9.01
2022-10-23T04:45:49.831Z,9.00
2022-10-23T04:48:17.393Z,8.99
2022-10-23T04:53:13.386Z,8.96
2022-10-23T04:55:41.266Z,8.93
2022-10-23T04:58:10.158Z,8.92
2022-10-23T05:00:37.727Z,8.89
2022-10-23T05:03:05.314Z,8.86
2022-10-23T05:05:32.867Z,8.84
2022-10-23T05:08:00.436Z,8.81
2022-10-23T05:10:28.050Z,8.77
2022-10-23T05:12:55.650Z,8.74
2022-10-23T05:15:24.594Z,8.70
2022-10-23T05:17:55.790Z,8.68
2022-10-23T05:20:27.273Z,8.63
2022-10-23T05:22:57.927Z,8.62
2022-10-23T05:25:25.492Z,8.60
2022-10-23T05:27:53.503Z,8.57
2022-10-23T05:30:21.022Z,8.54
2022-10-23T05:32:50.011Z,8.54
2022-10-23T05:35:22.215Z,8.54
2022-10-23T05:37:52.108Z,8.52
2022-10-23T05:40:20.044Z,8.49
2022-10-23T05:42:48.106Z,8.44
2022-10-23T05:45:16.159Z,8.39
2022-10-23T05:47:45.354Z,8.34
2022-10-23T05:50:14.490Z,8.31
2022-10-23T05:52:42.337Z,8.28
2022-10-23T05:55:10.861Z,8.26
2022-10-23T05:57:38.389Z,8.26
2022-10-23T06:00:07.021Z,8.28
2022-10-23T06:02:35.151Z,8.34
2022-10-23T06:05:02.749Z,8.39
2022-10-23T06:07:35.045Z,8.44
2022-10-23T06:10:04.092Z,8.46
2022-10-23T06:12:32.814Z,8.47
2022-10-23T06:15:00.375Z,8.49
2022-10-23T06:17:28.531Z,8.54
2022-10-23T06:20:00.690Z,8.57
2022-10-23T06:22:28.464Z,8.64
2022-10-23T06:24:57.398Z,8.73
2022-10-23T06:27:25.010Z,8.80
2022-10-23T06:29:52.866Z,8.88
2022-10-23T06:32:20.533Z,8.97
2022-10-23T06:34:48.079Z,9.02
2022-10-23T06:37:15.622Z,9.06
2022-10-23T06:39:43.175Z,9.13
2022-10-23T06:42:12.753Z,9.21
2022-10-23T06:44:40.383Z,9.29
2022-10-23T06:47:09.914Z,9.36
2022-10-23T06:49:37.518Z,9.45
2022-10-23T06:52:05.197Z,9.52
2022-10-23T06:54:32.846Z,9.59
2022-10-23T06:57:00.538Z,9.66
2022-10-23T06:59:29.633Z,9.72
2022-10-23T07:01:57.186Z,9.78
2022-10-23T07:04:25.237Z,9.82
2022-10-23T07:06:52.791Z,9.89
2022-10-23T07:09:20.310Z,9.92
2022-10-23T07:11:48.006Z,10.02
2022-10-23T07:14:15.554Z,10.15
2022-10-23T07:16:44.455Z,10.28
2022-10-23T07:19:12.006Z,10.37
2022-10-23T07:21:39.597Z,10.46
2022-10-23T07:24:07.830Z,10.63
2022-10-23T07:26:35.429Z,10.74
2022-10-23T07:29:02.958Z,10.82
2022-10-23T07:31:30.756Z,10.88
2022-10-23T07:34:00.014Z,11.06
2022-10-23T07:36:27.663Z,11.19
2022-10-23T07:38:55.250Z,11.36
2022-10-23T07:41:22.911Z,11.50
2022-10-23T07:43:50.535Z,11.64
2022-10-23T07:46:18.094Z,11.76
2022-10-23T07:48:45.906Z,11.85
2022-10-23T07:51:16.906Z,11.88
2022-10-23T07:53:45.133Z,11.93
2022-10-23T07:56:15.907Z,11.97
2022-10-23T07:58:43.576Z,12.03
2022-10-23T08:01:19.319Z,12.13
2022-10-23T08:03:47.790Z,12.16
2022-10-23T08:06:16.695Z,12.21
2022-10-23T08:11:15.915Z,12.25
2022-10-23T08:13:44.200Z,12.30
2022-10-23T08:16:11.756Z,12.20
2022-10-23T08:18:40.907Z,12.15
2022-10-23T08:21:08.445Z,12.28
2022-10-23T08:23:37.692Z,12.40
2022-10-23T08:26:07.076Z,12.43
2022-10-23T08:28:35.083Z,12.35
2022-10-23T08:31:09.121Z,12.35
2022-10-23T08:33:36.751Z,12.36
2022-10-23T08:36:04.686Z,12.46
2022-10-23T08:38:33.760Z,12.44
2022-10-23T08:41:02.771Z,12.47
2022-10-23T08:43:37.064Z,12.57
2022-10-23T08:46:09.527Z,12.64
2022-10-23T08:48:42.512Z,12.66
2022-10-23T08:51:17.400Z,12.66
2022-10-23T08:53:53.642Z,12.78
2022-10-23T08:56:27.006Z,12.94
2022-10-23T08:59:00.754Z,13.12
2022-10-23T09:01:38.688Z,13.34
2022-10-23T09:04:07.226Z,13.34
2022-10-23T09:06:40.261Z,13.54
2022-10-23T09:09:32.746Z,13.64
2022-10-23T09:12:08.435Z,13.86
2022-10-23T09:14:51.114Z,14.08
2022-10-23T09:17:25.707Z,14.27
2022-10-23T09:20:09.163Z,14.45
2022-10-23T09:22:36.730Z,14.57
2022-10-23T09:25:04.505Z,14.45
2022-10-23T09:27:33.450Z,14.26
2022-10-23T09:30:01.089Z,14.09
2022-10-23T09:32:36.771Z,13.83
2022-10-23T09:35:05.890Z,13.78
2022-10-23T09:37:35.794Z,13.74
2022-10-23T09:40:15.378Z,13.60
2022-10-23T09:42:54.724Z,13.67
2022-10-23T09:45:24.813Z,13.63
2022-10-23T09:47:52.442Z,13.60
2022-10-23T09:50:22.120Z,13.49
2022-10-23T09:52:55.446Z,13.51
2022-10-23T09:55:25.950Z,13.38
2022-10-23T09:57:56.054Z,13.39
2022-10-23T10:00:25.730Z,13.24
2022-10-23T10:02:58.901Z,13.39
2022-10-23T10:05:28.908Z,13.23
2022-10-23T10:08:14.506Z,13.14
2022-10-23T10:10:48.402Z,13.13
2022-10-23T10:13:34.061Z,13.19
2022-10-23T10:16:08.668Z,13.36
2022-10-23T10:18:43.233Z,13.47
2022-10-23T10:21:19.837Z,13.65
2022-10-23T10:23:55.731Z,13.78
2022-10-23T10:26:35.394Z,14.03
2022-10-23T10:29:25.675Z,14.10
2022-10-23T10:32:03.687Z,14.16
2022-10-23T10:34:39.005Z,14.29
2022-10-23T10:37:19.626Z,14.41
2022-10-23T10:39:54.530Z,14.54
2022-10-23T10:42:41.018Z,14.70
2022-10-23T10:45:27.762Z,14.78
2022-10-23T10:48:22.018Z,14.93
2022-10-23T10:50:54.874Z,15.08
2022-10-23T10:53:29.612Z,15.13
2022-10-23T10:56:01.234Z,15.27
2022-10-23T10:58:39.562Z,15.35
2022-10-23T11:01:18.015Z,15.40
2022-10-23T11:03:53.131Z,15.28
2022-10-23T11:06:24.399Z,15.16
2022-10-23T11:08:58.092Z,15.28
2022-10-23T11:11:41.263Z,15.35
2022-10-23T11:14:16.456Z,15.38
2022-10-23T11:16:48.949Z,15.56
2022-10-23T11:19:24.307Z,15.69
2022-10-23T11:21:58.414Z,15.82
2022-10-23T11:24:49.577Z,15.83
2022-10-23T11:27:43.297Z,16.09
2022-10-23T11:30:20.131Z,16.08
2022-10-23T11:33:14.399Z,16.15
2022-10-23T11:36:05.857Z,16.12
2022-10-23T11:38:36.077Z,16.18
2022-10-23T11:41:07.798Z,16.32
2022-10-23T11:43:48.810Z,16.35
2022-10-23T11:46:33.065Z,16.55
2022-10-23T11:49:03.765Z,16.63
2022-10-23T11:51:33.773Z,16.85
2022-10-23T11:54:22.344Z,16.99
2022-10-23T11:56:55.865Z,17.06
2022-10-23T11:59:27.143Z,16.92
2022-10-23T12:01:57.280Z,17.05
2022-10-23T12:04:29.075Z,17.17
2022-10-23T12:06:59.851Z,17.35
2022-10-23T12:09:37.786Z,17.36
2022-10-23T12:12:17.046Z,17.47
2022-10-23T12:14:46.617Z,17.56
2022-10-23T12:17:31.369Z,17.49
2022-10-23T12:20:20.254Z,17.40
2022-10-23T12:22:58.674Z,17.38
2022-10-23T12:25:35.721Z,17.26
2022-10-23T12:28:11.400Z,17.28
2022-10-23T12:30:46.384Z,17.29
2022-10-23T12:33:24.732Z,17.26
2022-10-23T12:36:10.341Z,17.17
2022-10-23T12:38:45.970Z,17.14
2022-10-23T12:41:16.199Z,17.10
2022-10-23T12:43:45.138Z,17.00
2022-10-23T12:46:35.271Z,17.01
2022-10-23T12:49:05.018Z,17.03
2022-10-23T12:51:36.109Z,17.06
2022-10-23T12:54:04.766Z,16.94
2022-10-23T12:56:38.834Z,16.92
2022-10-23T12:59:15.986Z,16.99
2022-10-23T13:01:43.918Z,17.06
2022-10-23T13:04:22.275Z,16.99
2022-10-23T13:06:52.967Z,16.96
2022-10-23T13:09:24.959Z,16.94
2022-10-23T13:11:53.200Z,17.00
2022-10-23T13:14:33.262Z,17.02
2022-10-23T13:17:02.137Z,16.96
2022-10-23T13:19:29.678Z,16.92
2022-10-23T13:21:59.359Z,16.90
2022-10-23T13:24:29.377Z,16.77
2022-10-23T13:26:57.641Z,16.71
2022-10-23T13:29:28.342Z,16.75
2022-10-23T13:31:55.945Z,16.65
2022-10-23T13:34:26.123Z,16.67
2022-10-23T13:36:57.221Z,16.58
2022-10-23T13:39:29.779Z,16.50
2022-10-23T13:41:59.891Z,16.46
2022-10-23T13:44:27.675Z,16.46
2022-10-23T13:46:55.227Z,16.41
2022-10-23T13:49:22.745Z,16.40
2022-10-23T13:51:53.899Z,16.42
2022-10-23T13:54:24.062Z,16.39
2022-10-23T13:56:53.255Z,16.33
2022-10-23T13:59:21.356Z,16.30
2022-10-23T14:01:50.847Z,16.18
2022-10-23T14:04:19.491Z,16.09
2022-10-23T14:06:47.430Z,16.03
2022-10-23T14:09:17.334Z,15.95
2022-10-23T14:11:45.586Z,15.95
2022-10-23T14:14:14.488Z,15.90
2022-10-23T14:16:42.285Z,15.77
2022-10-23T14:19:10.681Z,15.64
2022-10-23T14:21:38.242Z,15.58
2022-10-23T14:24:06.212Z,15.54
2022-10-23T14:26:34.255Z,15.49
2022-10-23T14:29:05.145Z,15.45
2022-10-23T14:31:38.719Z,15.41
2022-10-23T14:34:06.258Z,15.35
2022-10-23T14:36:43.268Z,15.34
2022-10-23T14:39:18.872Z,15.31
2022-10-23T14:41:46.393Z,15.30
2022-10-23T14:44:14.131Z,15.25
2022-10-23T14:46:43.030Z,15.23
2022-10-23T14:49:10.595Z,15.18
2022-10-23T14:51:38.291Z,15.15
2022-10-23T14:54:07.556Z,15.06
2022-10-23T14:56:37.921Z,15.00
2022-10-23T14:59:06.447Z,14.95
2022-10-23T15:01:36.682Z,14.88
2022-10-23T15:04:05.892Z,14.84
2022-10-23T15:06:33.755Z,14.80
2022-10-23T15:09:02.005Z,14.77
2022-10-23T15:11:29.693Z,14.69
2022-10-23T15:13:59.555Z,14.67
2022-10-23T15:16:27.483Z,14.62
2022-10-23T15:18:55.324Z,14.57
2022-10-23T15:21:24.674Z,14.57
2022-10-23T15:23:52.941Z,14.52
2022-10-23T15:26:23.014Z,14.50
2022-10-23T15:28:54.462Z,14.47
2022-10-23T15:31:41.836Z,14.42
2022-10-23T15:34:10.579Z,14.37
2022-10-23T15:36:39.550Z,14.33
2022-10-23T15:39:08.731Z,14.28
2022-10-23T15:41:38.497Z,14.24
2022-10-23T15:44:08.095Z,14.20
2022-10-23T15:46:36.475Z,14.16
2022-10-23T15:49:04.499Z,14.12
2022-10-23T15:51:32.744Z,14.08
2022-10-23T15:54:01.637Z,14.03
2022-10-23T15:56:29.185Z,14.00
2022-10-23T15:58:56.782Z,13.96
2022-10-23T16:01:24.501Z,13.92
2022-10-23T16:03:52.138Z,13.88
2022-10-23T16:06:22.756Z,13.84
2022-10-23T16:08:50.418Z,13.83
2022-10-23T16:11:21.819Z,13.81
2022-10-23T16:13:49.707Z,13.80
2022-10-23T16:16:19.011Z,13.76
2022-10-23T16:18:47.182Z,13.74
2022-10-23T16:21:19.433Z,13.73
2022-10-23T16:23:47.091Z,13.70
2022-10-23T16:26:14.849Z,13.68
2022-10-23T16:28:47.078Z,13.65
2022-10-23T16:31:19.975Z,13.63
2022-10-23T16:33:48.687Z,13.61
2022-10-23T16:36:17.107Z,13.59
2022-10-23T16:38:44.679Z,13.60
2022-10-23T16:41:12.267Z,13.60
2022-10-23T16:43:40.558Z,13.57
2022-10-23T16:46:13.606Z,13.53
2022-10-23T16:48:41.542Z,13.52
2022-10-23T16:51:10.974Z,13.50
2022-10-23T16:53:39.496Z,13.46
2022-10-23T16:56:09.762Z,13.43
2022-10-23T16:58:40.719Z,13.39
2022-10-23T17:01:11.538Z,13.38
2022-10-23T17:03:41.974Z,13.36
2022-10-23T17:06:12.021Z,13.34
2022-10-23T17:08:40.176Z,13.30
2022-10-23T17:11:09.798Z,13.29
2022-10-23T17:13:39.957Z,13.29
2022-10-23T17:16:11.161Z,13.28
2022-10-23T17:18:42.958Z,13.26
2022-10-23T17:21:11.982Z,13.25
2022-10-23T17:23:39.587Z,13.25
2022-10-23T17:26:08.446Z,13.24
2022-10-23T17:28:39.806Z,13.21
2022-10-23T17:31:14.800Z,13.20
2022-10-23T17:33:43.651Z,13.19
2022-10-23T17:36:12.655Z,13.18
2022-10-23T17:38:41.955Z,13.16
2022-10-23T17:41:10.482Z,13.15
2022-10-23T17:43:38.830Z,13.11
2022-10-23T17:46:08.056Z,13.11
2022-10-23T17:48:36.993Z,13.10
2022-10-23T17:51:06.141Z,13.07
2022-10-23T17:53:35.159Z,13.05
2022-10-23T17:56:03.970Z,12.98
2022-10-23T17:58:32.278Z,12.97
2022-10-23T18:01:05.835Z,12.95
2022-10-23T18:03:33.685Z,12.94
2022-10-23T18:06:08.850Z,12.94
2022-10-23T18:08:37.147Z,12.93
2022-10-23T18:11:05.239Z,12.92
2022-10-23T18:13:33.656Z,12.91
2022-10-23T18:16:02.239Z,12.90
2022-10-23T18:18:30.198Z,12.88
2022-10-23T18:20:58.422Z,12.85
2022-10-23T18:23:27.858Z,12.83
2022-10-23T18:25:55.722Z,12.81
2022-10-23T18:28:23.585Z,12.80
2022-10-23T18:30:53.369Z,12.79
2022-10-23T18:33:24.336Z,12.76
2022-10-23T18:35:52.642Z,12.74
2022-10-23T18:38:20.196Z,12.72
2022-10-23T18:40:55.482Z,12.72
2022-10-23T18:43:38.802Z,12.71
2022-10-23T18:46:11.595Z,12.73
2022-10-23T18:48:39.420Z,12.75
2022-10-23T18:51:15.748Z,12.77
2022-10-23T18:53:46.517Z,12.78
2022-10-23T18:56:15.820Z,12.81
2022-10-23T18:58:43.789Z,12.84
2022-10-23T19:01:11.685Z,12.87
2022-10-23T19:03:39.408Z,12.89
2022-10-23T19:06:08.016Z,12.91
2022-10-23T19:08:36.960Z,12.95
2022-10-23T19:11:06.355Z,12.96
2022-10-23T19:13:39.492Z,12.99
2022-10-23T19:16:11.557Z,13.01
2022-10-23T19:18:41.135Z,13.02
2022-10-23T19:21:08.874Z,13.02
2022-10-23T19:23:38.385Z,13.01
2022-10-23T19:26:08.806Z,13.01
2022-10-23T19:28:39.613Z,13.01
2022-10-23T19:31:09.751Z,13.00
2022-10-23T19:33:39.277Z,13.01
2022-10-23T19:36:11.133Z,13.03
2022-10-23T19:38:41.810Z,13.05
2022-10-23T19:41:10.242Z,13.06
2022-10-23T19:43:39.497Z,13.08
2022-10-23T19:46:11.009Z,13.09
2022-10-23T19:48:42.352Z,13.11
2022-10-23T19:51:10.081Z,13.12
2022-10-23T19:53:37.702Z,13.15
2022-10-23T19:56:07.671Z,13.18
2022-10-23T19:58:35.354Z,13.19
2022-10-23T20:01:10.126Z,13.20
2022-10-23T20:03:38.911Z,13.22
2022-10-23T20:06:10.061Z,13.22
2022-10-23T20:08:37.771Z,13.23
2022-10-23T20:11:05.691Z,13.24
2022-10-23T20:13:33.401Z,13.26
2022-10-23T20:16:01.287Z,13.26
2022-10-23T20:18:30.215Z,13.27
2022-10-23T20:20:57.905Z,13.27
2022-10-23T20:23:25.441Z,13.30
2022-10-23T20:25:52.999Z,13.31
2022-10-23T20:28:21.649Z,13.32
2022-10-23T20:30:49.202Z,13.35
2022-10-23T20:33:16.733Z,13.35
2022-10-23T20:35:45.669Z,13.39
2022-10-23T20:38:13.301Z,13.40
2022-10-23T20:40:40.853Z,13.43
2022-10-23T20:43:08.373Z,13.44
2022-10-23T20:45:35.944Z,13.46
2022-10-23T20:48:03.498Z,13.48
2022-10-23T20:50:31.074Z,13.48
2022-10-23T20:52:59.939Z,13.52
2022-10-23T20:55:27.561Z,13.55
2022-10-23T20:57:55.113Z,13.56
2022-10-23T21:00:22.665Z,13.58
2022-10-23T21:02:52.688Z,13.59
2022-10-23T21:05:20.499Z,13.62
2022-10-23T21:07:48.049Z,13.65
2022-10-23T21:10:17.054Z,13.67
2022-10-23T21:12:44.737Z,13.68
2022-10-23T21:15:12.612Z,13.71
2022-10-23T21:17:40.895Z,13.72
2022-10-23T21:20:08.948Z,13.74
2022-10-23T21:22:36.486Z,13.76
2022-10-23T21:25:04.137Z,13.78
2022-10-23T21:27:33.155Z,13.79
2022-10-23T21:30:00.685Z,13.80
2022-10-23T21:32:28.228Z,13.80
2022-10-23T21:34:55.848Z,13.81
2022-10-23T21:37:24.911Z,13.80
2022-10-23T21:39:52.454Z,13.83
2022-10-23T21:42:20.092Z,13.83
2022-10-23T21:44:49.066Z,13.85
2022-10-23T21:47:16.582Z,13.82
2022-10-23T21:49:44.309Z,13.82
2022-10-23T21:52:13.983Z,13.83
2022-10-23T21:54:43.760Z,13.82
2022-10-23T21:57:14.915Z,13.80
2022-10-23T21:59:42.450Z,13.79
2022-10-23T22:02:11.588Z,13.79
2022-10-23T22:04:39.602Z,13.78
2022-10-23T22:07:07.840Z,13.77
2022-10-23T22:09:35.387Z,13.76
2022-10-23T22:12:03.078Z,13.77
2022-10-23T22:14:31.178Z,13.77
2022-10-23T22:16:58.908Z,13.77
2022-10-23T22:19:27.881Z,13.77
2022-10-23T22:21:55.891Z,13.78
2022-10-23T22:24:23.494Z,13.77
2022-10-23T22:26:53.395Z,13.77
2022-10-23T22:29:23.109Z,13.79
2022-10-23T22:31:51.016Z,13.80
2022-10-23T22:34:34.796Z,13.81
2022-10-23T22:37:10.784Z,13.83
2022-10-23T22:39:38.596Z,13.85
2022-10-23T22:42:06.275Z,13.86
2022-10-23T22:44:33.846Z,13.90
2022-10-23T22:47:01.414Z,13.89
2022-10-23T22:49:29.163Z,13.91
2022-10-23T22:51:56.698Z,13.94
2022-10-23T22:54:25.770Z,13.95
2022-10-23T22:56:53.382Z,13.97
2022-10-23T22:59:20.903Z,14.01
2022-10-23T23:01:49.488Z,14.01
2022-10-23T23:04:37.796Z,14.03
2022-10-23T23:07:06.063Z,14.03
2022-10-23T23:09:36.686Z,14.04
2022-10-23T23:12:04.502Z,14.05
2022-10-23T23:14:32.069Z,14.06
2022-10-23T23:16:59.634Z,14.07
2022-10-23T23:19:28.385Z,14.07
2022-10-23T23:21:56.955Z,14.06
2022-10-23T23:24:24.541Z,14.03
2022-10-23T23:26:53.749Z,14.03
2022-10-23T23:29:21.629Z,13.99
2022-10-23T23:31:49.178Z,13.96
2022-10-23T23:34:16.745Z,13.92
2022-10-23T23:36:44.346Z,13.88
2022-10-23T23:39:12.472Z,13.84
2022-10-23T23:41:40.049Z,13.79
2022-10-23T23:44:10.131Z,13.76
2022-10-23T23:46:37.727Z,13.73
2022-10-23T23:49:05.285Z,13.70
2022-10-23T23:51:33.094Z,13.68
2022-10-23T23:54:00.742Z,13.67
2022-10-23T23:56:29.017Z,13.66
2022-10-23T23:58:56.558Z,13.65
